Time;durP1;ratioP1;P1;durP2;ratioP2;P2;SDS_P1;SDS_P2;PMS_P1;PMS_P2;Temp;Humidity;BMP_temperature;BMP_pressure;BME280_temperature;BME280_humidity;BME280_pressure;Samples;Min_cycle;Max_cycle;Signal;HPM_P1;HPM_P2
2022/01/10 00:00:21;;;;;;;;;;;;;;;9.79;74.30;99923.22;5055515;28;20003;-84
2022/01/10 00:02:48;;;;;;;;;;;;;;;9.74;75.34;99938.47;5055316;28;20326;-84
2022/01/10 00:05:14;;;;;;;;;;;;;;;9.78;75.30;99931.22;5055071;28;19912;-84
2022/01/10 00:07:40;;;;;;;;;;;;;;;9.78;75.41;99936.47;5055041;28;20008;-84
2022/01/10 00:10:06;;;;;;;;;;;;;;;9.72;75.44;99946.44;5055258;28;19913;-84
2022/01/10 00:12:31;;;;;;;;;;;;;;;9.77;75.33;99946.09;5054585;28;19924;-84
2022/01/10 00:14:56;;;;;;;;;;;;;;;9.83;75.66;99950.91;5054905;28;19950;-84
2022/01/10 00:17:21;;;;;;;;;;;;;;;9.83;75.23;99944.81;5054950;28;19938;-84
2022/01/10 00:19:47;;;;;;;;;;;;;;;9.89;75.97;99952.25;5054689;28;19912;-84
2022/01/10 00:22:12;;;;;;;;;;;;;;;9.89;75.78;99955.72;5054654;28;19920;-84
2022/01/10 00:24:38;;;;;;;;;;;;;;;9.90;75.78;99957.38;5054834;28;20286;-84
2022/01/10 00:27:03;;;;;;;;;;;;;;;9.87;75.60;99970.72;5054391;28;19912;-84
2022/01/10 00:29:28;;;;;;;;;;;;;;;9.88;75.71;99977.63;5054693;28;19958;-84
2022/01/10 00:31:54;;;;;;;;;;;;;;;9.87;75.67;99986.47;5054630;28;19912;-84
2022/01/10 00:34:19;;;;;;;;;;;;;;;9.89;76.06;99984.56;5054789;28;19976;-84
2022/01/10 00:36:45;;;;;;;;;;;;;;;9.90;76.33;99988.84;5054346;28;19913;-84
2022/01/10 00:39:10;;;;;;;;;;;;;;;9.92;76.49;99983.50;5054562;28;19913;-85
2022/01/10 00:41:36;;;;;;;;;;;;;;;9.93;76.53;99991.28;5054441;28;19913;-84
2022/01/10 00:44:04;;;;;;;;;;;;;;;9.93;77.00;99999.13;5054466;28;20394;-84
2022/01/10 00:46:29;;;;;;;;;;;;;;;9.95;76.57;100000.78;5054375;28;19913;-84
2022/01/10 00:48:55;;;;;;;;;;;;;;;9.93;76.85;99996.50;5054386;28;19912;-84
2022/01/10 00:51:20;;;;;;;;;;;;;;;9.95;77.34;100004.25;5054258;28;19912;-84
2022/01/10 00:53:48;;;;;;;;;;;;;;;9.89;77.97;100000.31;5053951;28;19924;-84
2022/01/10 00:56:13;;;;;;;;;;;;;;;9.98;77.25;100003.22;5053829;28;19917;-84
2022/01/10 00:58:39;;;;;;;;;;;;;;;9.93;78.32;100008.78;5052472;28;19920;-84
2022/01/10 01:01:04;;;;;;;;;;;;;;;9.88;78.31;100022.22;5053899;28;19912;-84
2022/01/10 01:03:30;;;;;;;;;;;;;;;9.89;78.12;100029.16;5053830;28;20471;-84
2022/01/10 01:05:55;;;;;;;;;;;;;;;9.89;78.35;100029.16;5053749;28;20357;-84
2022/01/10 01:08:20;;;;;;;;;;;;;;;9.88;78.48;100022.22;5053936;28;19999;-84
2022/01/10 01:16:31;;;;;;;;;;;;;;;9.90;77.54;100009.00;5051141;28;19916;-84
2022/01/10 01:19:29;;;;;;;;;;;;;;;9.92;78.13;100013.19;5053291;28;20424;-84
2022/01/10 01:24:26;;;;;;;;;;;;;;;9.90;78.83;100030.81;5053982;28;19936;-84
2022/01/10 01:26:52;;;;;;;;;;;;;;;9.83;79.12;100040.06;5053615;28;20355;-84
2022/01/10 01:29:21;;;;;;;;;;;;;;;9.83;79.00;100045.28;5053812;28;19917;-84
2022/01/10 01:31:47;;;;;;;;;;;;;;;9.89;78.44;100049.28;5053536;28;19913;-84
2022/01/10 01:34:14;;;;;;;;;;;;;;;9.88;78.20;100045.81;5053210;28;19939;-84
2022/01/10 01:36:39;;;;;;;;;;;;;;;9.89;78.04;100052.75;5053327;28;20003;-84
2022/01/10 01:39:15;;;;;;;;;;;;;;;9.89;78.59;100054.53;5052264;28;19999;-84
2022/01/10 01:41:42;;;;;;;;;;;;;;;9.88;78.14;100061.56;5053252;28;19966;-84
2022/01/10 01:44:07;;;;;;;;;;;;;;;9.94;77.67;100057.66;5053150;28;19920;-84
2022/01/10 01:46:34;;;;;;;;;;;;;;;9.92;78.47;100055.16;5052945;28;19912;-84
2022/01/10 01:48:59;;;;;;;;;;;;;;;10.00;78.31;100045.91;5052990;28;19935;-84
2022/01/10 01:51:25;;;;;;;;;;;;;;;9.99;78.89;100054.69;5053030;28;19912;-83
2022/01/10 01:53:50;;;;;;;;;;;;;;;10.00;77.99;100059.00;5053181;28;19952;-83
2022/01/10 01:56:16;;;;;;;;;;;;;;;10.05;78.80;100072.63;5052917;28;19913;-84
2022/01/10 01:58:43;;;;;;;;;;;;;;;9.97;78.79;100077.59;5052938;28;19920;-84
2022/01/10 02:01:08;;;;;;;;;;;;;;;9.95;79.14;100084.72;5053162;28;19940;-84
2022/01/10 02:03:37;;;;;;;;;;;;;;;9.90;78.67;100090.31;5052723;28;20275;-84
2022/01/10 02:06:03;;;;;;;;;;;;;;;9.88;78.94;100094.81;5052907;28;19919;-84
2022/01/10 02:08:28;;;;;;;;;;;;;;;9.96;79.15;100086.41;5053357;28;19909;-84
2022/01/10 02:10:53;;;;;;;;;;;;;;;10.02;78.58;100097.28;5052675;28;19970;-84
2022/01/10 02:13:18;;;;;;;;;;;;;;;10.06;78.16;100103.16;5052653;28;19913;-84
2022/01/10 02:15:50;;;;;;;;;;;;;;;10.05;78.39;100115.47;5052680;28;20302;-84
2022/01/10 02:18:16;;;;;;;;;;;;;;;10.15;77.93;100123.53;5052614;28;19928;-84
2022/01/10 02:20:42;;;;;;;;;;;;;;;10.11;77.67;100125.50;5052814;28;19921;-84
2022/01/10 02:23:07;;;;;;;;;;;;;;;10.08;78.35;100122.25;5052541;28;19917;-84
2022/01/10 02:25:32;;;;;;;;;;;;;;;10.07;78.30;100125.81;5052631;28;19967;-84
2022/01/10 02:27:58;;;;;;;;;;;;;;;10.03;78.20;100119.97;5052552;28;19934;-84
2022/01/10 02:30:23;;;;;;;;;;;;;;;10.04;78.52;100121.63;5052334;28;20054;-84
2022/01/10 02:32:48;;;;;;;;;;;;;;;10.11;78.70;100132.53;5052529;28;19947;-84
2022/01/10 02:35:17;;;;;;;;;;;;;;;10.04;78.61;100133.91;5052421;28;19920;-84
2022/01/10 02:37:43;;;;;;;;;;;;;;;10.03;78.72;100134.84;5052181;28;19913;-84
2022/01/10 02:40:13;;;;;;;;;;;;;;;9.99;78.79;100133.38;5052353;28;20366;-84
2022/01/10 02:42:38;;;;;;;;;;;;;;;9.96;78.48;100131.84;5052309;28;19955;-84
2022/01/10 02:45:04;;;;;;;;;;;;;;;10.06;78.76;100124.16;5052281;28;19912;-84
2022/01/10 02:47:31;;;;;;;;;;;;;;;10.02;79.10;100125.31;5052525;28;20432;-84
2022/01/10 02:49:56;;;;;;;;;;;;;;;10.25;78.39;100127.16;5054456;28;19912;-85
2022/01/10 02:52:21;;;;;;;;;;;;;;;10.51;77.84;100140.25;5056331;28;20438;-85
2022/01/10 02:54:47;;;;;;;;;;;;;;;10.28;78.28;100142.66;5055149;28;20003;-85
2022/01/10 02:57:12;;;;;;;;;;;;;;;10.22;78.09;100153.59;5056072;28;19959;-84
2022/01/10 02:59:39;;;;;;;;;;;;;;;10.28;77.66;100157.59;5056348;28;19913;-83
2022/01/10 03:02:06;;;;;;;;;;;;;;;10.15;78.53;100157.63;5056095;28;19951;-84
2022/01/10 03:04:31;;;;;;;;;;;;;;;10.31;77.21;100158.25;5056652;28;20011;-84
2022/01/10 03:06:58;;;;;;;;;;;;;;;10.44;76.97;100165.25;5054915;28;19921;-84
2022/01/10 03:09:24;;;;;;;;;;;;;;;10.32;77.37;100159.06;5056361;28;20332;-84
2022/01/10 03:11:49;;;;;;;;;;;;;;;10.12;78.89;100158.66;5054722;28;19913;-84
2022/01/10 03:14:14;;;;;;;;;;;;;;;10.24;78.81;100164.81;5056215;28;20034;-84
2022/01/10 03:16:40;;;;;;;;;;;;;;;10.45;76.96;100166.94;5055855;28;20282;-84
2022/01/10 03:19:05;;;;;;;;;;;;;;;10.47;76.37;100167.66;5055895;28;19919;-84
2022/01/10 03:21:30;;;;;;;;;;;;;;;10.47;76.46;100158.00;5056273;28;19912;-84
2022/01/10 03:23:55;;;;;;;;;;;;;;;10.46;76.01;100172.03;5055774;28;19908;-85
2022/01/10 03:26:21;;;;;;;;;;;;;;;10.41;75.95;100170.72;5055676;28;20289;-84
2022/01/10 03:28:47;;;;;;;;;;;;;;;10.30;76.52;100164.44;5055760;28;19914;-84
2022/01/10 03:31:12;;;;;;;;;;;;;;;10.13;77.67;100159.53;5055736;28;19913;-84
2022/01/10 03:33:37;;;;;;;;;;;;;;;10.17;77.59;100171.47;5055970;28;20366;-84
2022/01/10 03:36:03;;;;;;;;;;;;;;;10.06;77.72;100181.88;5055669;28;19913;-84
2022/01/10 03:38:28;;;;;;;;;;;;;;;10.27;77.10;100169.03;5055359;28;19957;-84
2022/01/10 03:40:54;;;;;;;;;;;;;;;10.01;78.71;100173.47;5054034;28;19913;-84
2022/01/10 03:43:19;;;;;;;;;;;;;;;10.39;77.14;100183.94;5055345;28;19912;-84
2022/01/10 03:45:44;;;;;;;;;;;;;;;10.36;77.50;100178.06;5055348;28;20416;-84
2022/01/10 03:48:10;;;;;;;;;;;;;;;10.09;77.96;100179.00;5055152;28;19913;-84
2022/01/10 03:50:35;;;;;;;;;;;;;;;9.98;78.98;100178.94;5055299;28;20007;-84
2022/01/10 03:53:01;;;;;;;;;;;;;;;10.01;79.11;100184.81;5054958;28;20046;-84
2022/01/10 03:55:26;;;;;;;;;;;;;;;10.03;79.06;100188.19;5055192;28;20359;-84
2022/01/10 03:57:51;;;;;;;;;;;;;;;10.17;78.86;100187.22;5055133;28;19916;-84
2022/01/10 04:00:17;;;;;;;;;;;;;;;10.28;78.34;100184.66;5055039;28;20286;-84
2022/01/10 04:02:51;;;;;;;;;;;;;;;10.27;78.22;100188.25;5054007;28;20316;-84
2022/01/10 04:05:16;;;;;;;;;;;;;;;10.35;78.33;100202.63;5054931;28;19939;-84
2022/01/10 04:07:42;;;;;;;;;;;;;;;10.45;77.53;100206.31;5053451;28;19912;-84
2022/01/10 04:10:07;;;;;;;;;;;;;;;10.52;77.20;100207.53;5055011;28;19913;-84
2022/01/10 04:12:32;;;;;;;;;;;;;;;10.28;76.16;100205.66;5054843;28;19957;-84
2022/01/10 04:14:58;;;;;;;;;;;;;;;10.21;76.85;100219.31;5054555;28;20283;-84
2022/01/10 04:17:23;;;;;;;;;;;;;;;9.95;78.83;100221.94;5054657;28;19923;-84
2022/01/10 04:19:48;;;;;;;;;;;;;;;10.20;78.03;100226.34;5054722;28;19955;-84
2022/01/10 04:22:13;;;;;;;;;;;;;;;10.22;77.64;100228.88;5054467;28;20422;-84
2022/01/10 04:24:39;;;;;;;;;;;;;;;9.96;78.04;100230.66;5054759;28;19912;-84
2022/01/10 04:27:04;;;;;;;;;;;;;;;9.88;78.95;100234.63;5054561;28;19920;-84
2022/01/10 04:29:29;;;;;;;;;;;;;;;10.03;79.20;100240.63;5054705;28;19950;-84
2022/01/10 04:31:55;;;;;;;;;;;;;;;10.27;78.28;100248.59;5053043;28;19920;-84
2022/01/10 04:34:20;;;;;;;;;;;;;;;10.22;78.39;100250.69;5054399;28;19912;-84
2022/01/10 04:36:45;;;;;;;;;;;;;;;10.22;78.73;100258.56;5054316;28;20101;-84
2022/01/10 04:39:11;;;;;;;;;;;;;;;10.24;78.73;100261.91;5054358;28;20374;-84
2022/01/10 04:41:37;;;;;;;;;;;;;;;10.17;79.10;100259.81;5054293;28;19909;-84
2022/01/10 04:44:03;;;;;;;;;;;;;;;10.17;79.34;100257.19;5054293;28;19909;-84
2022/01/10 04:46:28;;;;;;;;;;;;;;;10.34;78.64;100256.06;5054400;28;20333;-84
2022/01/10 04:48:53;;;;;;;;;;;;;;;10.43;77.90;100253.66;5054343;28;20440;-84
2022/01/10 04:51:20;;;;;;;;;;;;;;;10.52;77.17;100254.78;5054000;28;19935;-84
2022/01/10 04:53:50;;;;;;;;;;;;;;;10.45;77.83;100248.31;5054009;28;20310;-84
2022/01/10 04:56:16;;;;;;;;;;;;;;;10.35;77.58;100257.75;5053882;28;19913;-84
2022/01/10 04:58:42;;;;;;;;;;;;;;;10.29;78.08;100270.31;5053779;28;19920;-84
2022/01/10 05:01:07;;;;;;;;;;;;;;;10.32;77.67;100275.38;5053746;28;19962;-85
2022/01/10 05:03:33;;;;;;;;;;;;;;;10.35;78.19;100278.72;5053736;28;20392;-84
2022/01/10 05:05:58;;;;;;;;;;;;;;;10.37;77.46;100287.34;5054111;28;19912;-85
2022/01/10 05:08:23;;;;;;;;;;;;;;;10.38;77.33;100286.41;5053815;28;19990;-85
2022/01/10 05:10:49;;;;;;;;;;;;;;;10.45;77.10;100296.38;5053642;28;19913;-84
2022/01/10 05:13:15;;;;;;;;;;;;;;;10.26;78.10;100298.56;5053494;28;19982;-85
2022/01/10 05:15:42;;;;;;;;;;;;;;;10.02;79.93;100308.94;5053826;28;19963;-84
2022/01/10 05:18:09;;;;;;;;;;;;;;;10.18;79.47;100306.94;5053611;28;19917;-83
2022/01/10 05:20:34;;;;;;;;;;;;;;;10.29;78.91;100314.94;5053689;28;19959;-83
2022/01/10 05:23:00;;;;;;;;;;;;;;;10.36;78.47;100311.91;5053640;28;19912;-83
2022/01/10 05:25:25;;;;;;;;;;;;;;;10.34;78.61;100311.19;5053362;28;20358;-84
2022/01/10 05:27:50;;;;;;;;;;;;;;;10.49;77.78;100320.63;5053779;28;19947;-84
2022/01/10 05:30:15;;;;;;;;;;;;;;;10.54;76.91;100321.16;5053533;28;19913;-83
2022/01/10 05:32:41;;;;;;;;;;;;;;;10.39;77.88;100332.72;5047915;28;19961;-83
2022/01/10 05:35:06;;;;;;;;;;;;;;;10.33;78.34;100331.34;5031786;28;19924;-84
2022/01/10 05:37:31;;;;;;;;;;;;;;;10.30;78.18;100329.75;5032213;28;19923;-83
2022/01/10 05:39:57;;;;;;;;;;;;;;;10.53;77.57;100327.34;5033058;28;20307;-84
2022/01/10 05:42:22;;;;;;;;;;;;;;;10.46;77.44;100326.09;5033363;28;19944;-84
2022/01/10 05:44:47;;;;;;;;;;;;;;;10.35;78.44;100323.34;5033560;28;19944;-84
2022/01/10 05:47:13;;;;;;;;;;;;;;;10.46;78.45;100320.84;5033179;28;19913;-84
2022/01/10 05:49:45;;;;;;;;;;;;;;;10.41;77.81;100317.72;5033158;28;19909;-84
2022/01/10 05:52:10;;;;;;;;;;;;;;;10.48;77.56;100318.94;5033361;28;19913;-83
2022/01/10 05:54:36;;;;;;;;;;;;;;;10.52;76.94;100333.53;5033229;28;19962;-83
2022/01/10 05:57:01;;;;;;;;;;;;;;;10.56;76.65;100337.63;5033163;28;19923;-84
2022/01/10 05:59:27;;;;;;;;;;;;;;;10.59;77.02;100340.06;5033041;28;19912;-83
2022/01/10 06:01:52;;;;;;;;;;;;;;;10.61;76.26;100346.03;5032716;28;19913;-83
2022/01/10 06:04:17;;;;;;;;;;;;;;;10.56;76.88;100345.50;5032845;28;19955;-84
2022/01/10 06:06:42;;;;;;;;;;;;;;;10.48;76.30;100351.28;5031731;28;19920;-84
2022/01/10 06:09:08;;;;;;;;;;;;;;;10.54;76.65;100362.31;5031634;28;19913;-84
2022/01/10 06:11:34;;;;;;;;;;;;;;;10.47;77.04;100364.53;5032771;28;20381;-84
2022/01/10 06:13:59;;;;;;;;;;;;;;;10.54;77.32;100365.78;5032814;28;20003;-84
2022/01/10 06:16:25;;;;;;;;;;;;;;;10.52;77.73;100372.91;5032600;28;20012;-84
2022/01/10 06:18:50;;;;;;;;;;;;;;;10.54;77.09;100370.19;5032675;28;19980;-84
2022/01/10 06:21:15;;;;;;;;;;;;;;;10.58;76.97;100372.50;5032755;28;20428;-84
2022/01/10 06:23:40;;;;;;;;;;;;;;;10.54;76.91;100376.28;5032150;28;19913;-84
2022/01/10 06:26:06;;;;;;;;;;;;;;;10.44;78.07;100380.47;5032487;28;20094;-84
2022/01/10 06:28:31;;;;;;;;;;;;;;;10.23;78.68;100378.34;5032433;28;19912;-84
2022/01/10 06:30:56;;;;;;;;;;;;;;;10.28;78.38;100381.47;5032555;28;19959;-84
2022/01/10 06:33:21;;;;;;;;;;;;;;;10.33;79.15;100381.22;5030872;28;19917;-84
2022/01/10 06:35:47;;;;;;;;;;;;;;;10.52;77.67;100383.41;5031177;28;19919;-84
2022/01/10 06:38:12;;;;;;;;;;;;;;;10.59;77.87;100392.56;5032603;28;19952;-84
2022/01/10 06:40:37;;;;;;;;;;;;;;;10.62;77.70;100397.59;5032382;28;19924;-84
2022/01/10 06:43:04;;;;;;;;;;;;;;;10.54;77.97;100407.78;5032334;28;19920;-84
2022/01/10 06:45:29;;;;;;;;;;;;;;;10.48;78.63;100408.19;5032446;28;19913;-84
2022/01/10 06:47:54;;;;;;;;;;;;;;;10.46;79.08;100415.34;5032208;28;19916;-84
2022/01/10 06:50:20;;;;;;;;;;;;;;;10.49;78.13;100421.22;5032569;28;20286;-84
2022/01/10 06:52:45;;;;;;;;;;;;;;;10.50;78.47;100425.56;5032441;28;19913;-84
2022/01/10 06:55:11;;;;;;;;;;;;;;;10.55;78.60;100430.47;5032068;28;20393;-84
2022/01/10 06:57:36;;;;;;;;;;;;;;;10.58;77.53;100425.00;5030925;28;19913;-84
2022/01/10 07:00:04;;;;;;;;;;;;;;;10.66;77.10;100432.38;5032216;28;19917;-84
2022/01/10 07:02:29;;;;;;;;;;;;;;;10.68;77.54;100440.97;5032180;28;19920;-84
2022/01/10 07:04:55;;;;;;;;;;;;;;;10.69;77.11;100443.50;5032075;28;19909;-84
2022/01/10 07:07:20;;;;;;;;;;;;;;;10.66;76.73;100448.97;5030829;28;19936;-84
2022/01/10 07:09:45;;;;;;;;;;;;;;;10.66;76.45;100445.50;5032185;28;20360;-84
2022/01/10 07:12:11;;;;;;;;;;;;;;;10.69;76.34;100448.75;5032106;28;19958;-84
2022/01/10 07:14:37;;;;;;;;;;;;;;;10.73;76.66;100443.31;5032136;28;19913;-84
2022/01/10 07:17:02;;;;;;;;;;;;;;;10.67;76.64;100448.03;5032054;28;20371;-84
2022/01/10 07:19:27;;;;;;;;;;;;;;;10.49;77.28;100449.28;5031994;28;19913;-84
2022/01/10 07:21:53;;;;;;;;;;;;;;;10.44;78.02;100461.84;5031803;28;20416;-84
2022/01/10 07:24:19;;;;;;;;;;;;;;;10.34;78.36;100471.28;5032006;28;20004;-84
2022/01/10 07:26:44;;;;;;;;;;;;;;;10.34;78.92;100476.53;5032272;28;20329;-84
2022/01/10 07:29:11;;;;;;;;;;;;;;;10.22;79.91;100481.59;5032026;28;19935;-84
2022/01/10 07:31:37;;;;;;;;;;;;;;;10.32;79.18;100482.72;5031765;28;19966;-84
2022/01/10 07:34:03;;;;;;;;;;;;;;;10.48;78.29;100486.94;5032059;28;20000;-85
2022/01/10 07:36:28;;;;;;;;;;;;;;;10.51;77.62;100497.25;5033011;28;20333;-87
2022/01/10 07:38:54;;;;;;;;;;;;;;;10.48;78.00;100492.19;5034614;28;20008;-87
2022/01/10 07:41:19;;;;;;;;;;;;;;;10.64;77.25;100507.78;5035647;28;19913;-88
2022/01/10 07:43:45;;;;;;;;;;;;;;;10.66;77.22;100514.63;5042756;28;19985;-85
2022/01/10 07:46:11;;;;;;;;;;;;;;;10.57;77.63;100519.66;5046743;28;19952;-84
2022/01/10 07:48:37;;;;;;;;;;;;;;;10.63;77.34;100527.94;5045869;28;19913;-85
2022/01/10 07:51:03;;;;;;;;;;;;;;;10.76;76.04;100529.75;5045309;28;19924;-85
2022/01/10 07:53:28;;;;;;;;;;;;;;;10.90;75.71;100541.03;5042458;28;19913;-87
2022/01/10 07:55:54;;;;;;;;;;;;;;;11.07;75.32;100547.75;5040138;28;19913;-85
2022/01/10 07:58:19;;;;;;;;;;;;;;;11.10;75.14;100552.81;5039826;28;19921;-85
2022/01/10 08:00:45;;;;;;;;;;;;;;;11.13;74.88;100556.19;5041575;28;19913;-84
2022/01/10 08:03:10;;;;;;;;;;;;;;;11.12;74.77;100568.50;5037808;28;19999;-85
2022/01/10 08:05:35;;;;;;;;;;;;;;;11.15;75.28;100577.94;5036510;28;19913;-85
2022/01/10 08:08:01;;;;;;;;;;;;;;;11.14;74.91;100581.50;5035926;28;19952;-84
2022/01/10 08:10:26;;;;;;;;;;;;;;;11.18;74.93;100585.63;5037344;28;19913;-86
2022/01/10 08:12:52;;;;;;;;;;;;;;;11.04;75.61;100583.94;5037491;28;19963;-85
2022/01/10 08:15:17;;;;;;;;;;;;;;;11.18;74.77;100585.63;5037637;28;19917;-86
2022/01/10 08:17:42;;;;;;;;;;;;;;;11.43;74.01;100590.91;5036283;28;19964;-87
2022/01/10 08:20:08;;;;;;;;;;;;;;;11.47;73.56;100592.38;5035344;28;19912;-87
2022/01/10 08:22:33;;;;;;;;;;;;;;;11.49;73.34;100594.88;5034816;28;20341;-87
2022/01/10 08:24:58;;;;;;;;;;;;;;;11.56;72.51;100598.78;5035130;28;20399;-87
2022/01/10 08:27:24;;;;;;;;;;;;;;;11.58;72.92;100599.50;5035192;28;19913;-85
2022/01/10 08:29:49;;;;;;;;;;;;;;;11.60;72.82;100602.03;5035358;28;19909;-85
2022/01/10 08:32:18;;;;;;;;;;;;;;;11.54;72.90;100598.03;5036379;28;20375;-85
2022/01/10 08:34:43;;;;;;;;;;;;;;;11.57;73.04;100607.50;5060473;28;20355;-86
2022/01/10 08:37:09;;;;;;;;;;;;;;;11.61;73.20;100606.34;5074671;28;20432;-87
2022/01/10 08:39:34;;;;;;;;;;;;;;;11.67;72.91;100608.53;5055206;28;19919;-85
2022/01/10 08:42:00;;;;;;;;;;;;;;;11.59;72.87;100610.88;5052566;28;19951;-86
2022/01/10 08:44:26;;;;;;;;;;;;;;;11.43;73.71;100616.34;5046744;28;19921;-88
2022/01/10 08:46:51;;;;;;;;;;;;;;;11.45;73.36;100609.19;5055055;28;19924;-86
2022/01/10 08:49:17;;;;;;;;;;;;;;;11.44;73.60;100607.50;5051603;28;19916;-87
2022/01/10 08:51:42;;;;;;;;;;;;;;;11.48;73.33;100604.56;5064118;28;19924;-86
2022/01/10 08:54:08;;;;;;;;;;;;;;;11.60;73.57;100612.56;5061539;28;19919;-87
2022/01/10 08:56:34;;;;;;;;;;;;;;;11.61;72.93;100622.97;5067356;28;19967;-86
2022/01/10 08:58:59;;;;;;;;;;;;;;;11.66;73.04;100627.91;5052744;28;19942;-86
2022/01/10 09:01:26;;;;;;;;;;;;;;;11.55;72.72;100626.00;5051293;28;19943;-88
2022/01/10 09:03:52;;;;;;;;;;;;;;;11.56;72.49;100625.06;5037938;28;19921;-86
2022/01/10 09:06:17;;;;;;;;;;;;;;;11.63;71.54;100631.59;5043492;28;19920;-86
2022/01/10 09:08:44;;;;;;;;;;;;;;;11.64;71.77;100640.34;5044199;28;19956;-86
2022/01/10 09:11:10;;;;;;;;;;;;;;;11.53;72.33;100643.69;5041238;28;19917;-86
2022/01/10 09:13:35;;;;;;;;;;;;;;;11.67;71.91;100637.47;5047751;28;19940;-83
2022/01/10 09:16:02;;;;;;;;;;;;;;;11.66;72.55;100635.81;5042483;28;20038;-85
2022/01/10 09:18:27;;;;;;;;;;;;;;;11.85;71.84;100636.22;5059998;28;19923;-84
2022/01/10 09:20:55;;;;;;;;;;;;;;;11.80;71.34;100640.94;5062476;28;19916;-84
2022/01/10 09:23:20;;;;;;;;;;;;;;;11.76;72.01;100639.47;5054599;28;19916;-85
2022/01/10 09:25:46;;;;;;;;;;;;;;;11.54;72.66;100652.44;5053134;28;19920;-85
2022/01/10 09:28:11;;;;;;;;;;;;;;;11.60;72.44;100662.53;5053118;28;19913;-85
2022/01/10 09:30:36;;;;;;;;;;;;;;;11.42;72.11;100669.88;5053182;28;19913;-85
2022/01/10 09:33:01;;;;;;;;;;;;;;;11.00;73.84;100683.13;5062179;28;19913;-85
2022/01/10 09:35:27;;;;;;;;;;;;;;;11.40;72.50;100672.59;5073446;28;19917;-85
2022/01/10 09:37:52;;;;;;;;;;;;;;;11.47;72.29;100684.41;5048254;28;19951;-86
2022/01/10 09:40:18;;;;;;;;;;;;;;;11.42;72.56;100689.13;5063310;28;19962;-86
2022/01/10 09:42:44;;;;;;;;;;;;;;;11.48;72.35;100670.28;5052561;28;19916;-85
2022/01/10 09:45:10;;;;;;;;;;;;;;;11.57;72.20;100667.97;5052269;28;20389;-86
2022/01/10 09:47:35;;;;;;;;;;;;;;;11.49;72.42;100673.75;5052996;28;19916;-88
2022/01/10 09:50:01;;;;;;;;;;;;;;;11.68;71.85;100682.09;5052631;28;19913;-88
2022/01/10 09:52:27;;;;;;;;;;;;;;;11.81;71.69;100684.75;5052115;28;19917;-87
2022/01/10 09:54:53;;;;;;;;;;;;;;;11.44;72.94;100686.41;5047892;28;20003;-88
2022/01/10 09:57:19;;;;;;;;;;;;;;;11.30;72.65;100692.56;5050884;28;19920;-88
2022/01/10 09:59:44;;;;;;;;;;;;;;;11.58;72.54;100696.81;5052121;28;19912;-88
2022/01/10 10:02:10;;;;;;;;;;;;;;;11.73;71.71;100692.31;5052475;28;20258;-88
2022/01/10 10:04:36;;;;;;;;;;;;;;;11.50;72.09;100691.25;5052419;28;19913;-88
2022/01/10 10:07:01;;;;;;;;;;;;;;;11.34;73.38;100686.16;5051722;28;19913;-88
2022/01/10 10:09:27;;;;;;;;;;;;;;;11.51;73.24;100691.16;5052672;28;19920;-87
2022/01/10 10:11:53;;;;;;;;;;;;;;;11.92;72.23;100698.97;5055995;28;19917;-87
2022/01/10 10:14:21;;;;;;;66.15;30.65;;;;;;;11.38;73.62;100692.06;5051713;28;20855;-87
2022/01/10 10:16:51;;;;;;;57.45;27.73;;;;;;;11.38;74.24;100698.16;5050921;28;20407;-87
2022/01/10 10:19:20;;;;;;;;;;;;;;;11.39;74.30;100691.94;5052136;28;20046;-87
2022/01/10 10:21:48;;;;;;;;;;;;;;;11.38;74.10;100700.78;5049847;28;20270;-87
2022/01/10 10:24:13;;;;;;;;;;;;;;;11.48;73.72;100699.22;5049688;28;19957;-87
2022/01/10 10:26:39;;;;;;;;;;;;;;;11.26;74.85;100710.31;5040418;28;19960;-87
2022/01/10 10:29:05;;;;;;;;;;;;;;;11.31;75.38;100702.13;5041876;28;19949;-87
2022/01/10 10:31:31;;;;;;;;;;;;;;;11.51;74.80;100714.81;5045478;28;21422;-93
2022/01/10 10:33:58;;;;;;;;;;;;;;;11.30;75.82;100706.56;5041071;28;19965;-87
2022/01/10 10:36:25;;;;;;;;;;;;;;;11.64;74.66;100716.59;5035437;28;20400;-87
2022/01/10 10:38:50;;;;;;;;;;;;;;;11.81;74.10;100723.34;5043789;28;19992;-86
2022/01/10 10:41:15;;;;;;;;;;;;;;;11.91;72.78;100737.59;5039168;28;19978;-87
2022/01/10 10:43:42;;;;;;;;;;;;;;;11.85;73.75;100741.47;5041494;28;20358;-87
2022/01/10 10:46:15;;;;;;;;;;;;;;;11.73;74.43;100746.69;5037825;28;19977;-87
2022/01/10 10:48:42;;;;;;;;;;;;;;;12.01;73.20;100749.19;5038007;28;20005;-87
2022/01/10 10:51:07;;;;;;;;;;;;;;;11.76;73.12;100747.34;5036335;28;19973;-87
2022/01/10 10:53:33;;;;;;;;;;;;;;;11.77;74.33;100756.94;5035126;28;20031;-89
2022/01/10 10:56:00;;;;;;;;;;;;;;;11.69;74.59;100757.44;5035427;28;19970;-87
2022/01/10 10:58:25;;;;;;;;;;;;;;;11.74;74.70;100758.91;5055541;28;20142;-87
2022/01/10 11:00:50;;;;;;;;;;;;;;;11.77;74.84;100761.31;5072220;28;20052;-88
2022/01/10 11:03:18;;;;;;;;;;;;;;;11.79;74.77;100765.56;5061714;28;20474;-90
2022/01/10 11:05:44;;;;;;;;;;;;;;;11.75;75.38;100764.09;5052066;28;19972;-88
2022/01/10 11:08:10;;;;;;;;;;;;;;;11.73;75.07;100765.09;5052087;28;19973;-87
2022/01/10 11:10:36;;;;;;;;;;;;;;;11.77;75.13;100756.94;5053438;28;19969;-88
2022/01/10 11:13:01;;;;;;;;;;;;;;;12.01;75.08;100766.78;5049138;28;19992;-87
2022/01/10 11:15:27;;;;;;;;;;;;;;;12.04;74.62;100763.91;5043518;28;19978;-88
2022/01/10 11:17:53;;;;;;;;;;;;;;;12.34;73.82;100760.09;5043522;28;19921;-89
2022/01/10 11:20:20;;;;;;;;;;;;;;;12.39;73.35;100760.63;5035539;28;20297;-88
2022/01/10 11:22:49;;;;;;;;;;;;;;;12.34;73.51;100768.84;5042390;28;20055;-86
2022/01/10 11:25:20;;;;;;;;;;;;;;;12.22;74.79;100767.94;5055515;28;19920;-87
2022/01/10 11:27:45;;;;;;;;;;;;;;;12.35;73.89;100761.81;5054293;28;19962;-91
2022/01/10 11:30:16;;;;;;;;;;;;;;;12.29;74.51;100768.34;5044268;28;19968;-87
2022/01/10 11:33:03;;;;;;;;;;;;;;;12.23;74.73;100771.41;5037794;28;20138;-87
2022/01/10 11:35:30;;;;;;;;;;;;;;;12.46;73.00;100764.50;5044259;28;19917;-90
2022/01/10 11:37:55;;;;;;;;;;;;;;;12.83;72.80;100768.00;5054365;28;19920;-89
2022/01/10 11:40:21;;;;;;;;;;;;;;;12.55;72.41;100758.59;5053860;28;19939;-87
2022/01/10 11:42:51;;;;;;;;;;;;;;;12.57;72.91;100761.13;5046516;28;19913;-87
2022/01/10 11:45:17;;;;;;;;;;;;;;;12.26;73.86;100771.16;5041055;28;19921;-88
2022/01/10 11:48:01;;;;;;;;;;;;;;;12.66;72.50;100761.34;5049649;28;19958;-89
2022/01/10 11:50:27;;;;;;;;;;;;;;;12.53;72.81;100768.41;5047230;28;19921;-88
2022/01/10 11:53:02;;;;;;;;;;;;;;;12.71;72.77;100761.00;5051095;28;20378;-88
2022/01/10 11:55:30;;;;;;;;;;;;;;;12.56;72.16;100762.94;5045617;28;19974;-88
2022/01/10 11:58:05;;;;;;;;;;;;;;;12.56;73.01;100764.72;5045209;28;20370;-88
2022/01/10 12:00:35;;;;;;;;;;;;;;;12.56;73.43;100765.56;5044821;28;20409;-90
2022/01/10 12:03:00;;;;;;;;;;;;;;;12.45;72.76;100773.38;5038882;28;19912;-89
2022/01/10 12:05:25;;;;;;;;;;;;;;;12.70;71.34;100768.06;5049479;28;19921;-89
2022/01/10 12:07:51;;;;;;;;;;;;;;;12.81;71.19;100769.09;5035615;28;19958;-89
2022/01/10 12:10:17;;;;;;;;;;;;;;;12.46;73.06;100775.03;5035919;28;20367;-89
2022/01/10 12:12:42;;;;;;;;;;;;;;;12.47;72.85;100780.22;5037243;28;19921;-88
2022/01/10 12:15:08;;;;;;;;;;;;;;;12.55;72.64;100782.31;5049752;28;19942;-90
2022/01/10 12:17:35;;;;;;;;;;;;;;;12.52;72.59;100779.91;5039091;28;19921;-90
2022/01/10 12:20:02;;;;;;;;;;;;;;;12.66;72.33;100785.03;5044444;28;19928;-88
2022/01/10 12:22:27;;;;;;;;;;;;;;;12.68;72.06;100788.41;5048188;28;19928;-89
2022/01/10 12:24:53;;;;;;;;;;;;;;;12.46;72.98;100786.44;5043892;28;19921;-89
2022/01/10 12:27:18;;;;;;;;;;;;;;;12.48;73.50;100784.53;5041289;28;20021;-89
2022/01/10 12:29:44;;;;;;;;;;;;;;;12.29;74.53;100787.59;5047205;28;19921;-90
2022/01/10 12:32:11;;;;;;;;;;;;;;;12.55;73.19;100781.47;5039010;28;19921;-89
2022/01/10 12:34:41;;;;;;;59.88;27.67;;;;;;;12.40;73.63;100780.75;5050922;28;20406;-95
2022/01/10 12:37:06;;;;;;;;;;;;;;;12.43;73.53;100788.44;5052567;28;20064;-89
2022/01/10 12:39:35;;;;;;;;;;;;;;;12.54;73.56;100791.19;5036301;28;20453;-90